Lakewood, Texas
Current Conditions -  °F | °C
As of 4:50 PM on Sunday 21 Dec 2014 (Local Time) from KEFD Reporting Station
Scattered Clouds Scattered Clouds  
Wind Chill: 59°   Ceiling: Unl
Heat Index: 59°   Visibility: 10mi
Dew Point: 52°   Wind: 7mph
Humidity: 77%   Direction: 120°ESE
Pressure: 29.97"   Gusts: NA
Location:  29.7803°N, 94.894°W
Report Text: KEFD 212250Z 12006KT 10SM FEW030 SCT090 15/11 A2997
Loading
Personal Weather Stations






























Interactive Weather Map New forecast layout! Learn more

10-Day Weather Forecast

Advertisements
Track Severe Weather on mobile